createdAt,value
2022-07-27T00:01:30.523Z,23.33
2022-07-27T00:06:34.091Z,22.47
2022-07-27T00:11:37.037Z,21.86
2022-07-27T00:16:40.164Z,22.48
2022-07-27T00:21:46.274Z,24.76
2022-07-27T00:26:49.479Z,24.46
2022-07-27T00:31:52.409Z,23.06
2022-07-27T00:36:55.284Z,22.25
2022-07-27T00:41:58.391Z,21.65
2022-07-27T00:47:01.763Z,22.35
2022-07-27T00:52:04.779Z,24.63
2022-07-27T00:57:10.330Z,24.39
2022-07-27T01:02:19.281Z,22.92
2022-07-27T01:07:26.607Z,22.02
2022-07-27T01:12:32.300Z,21.41
2022-07-27T01:17:35.637Z,22.01
2022-07-27T01:22:38.561Z,24.30
2022-07-27T01:27:41.443Z,24.12
2022-07-27T01:32:44.292Z,22.77
2022-07-27T01:37:48.077Z,21.96
2022-07-27T01:42:51.705Z,21.35
2022-07-27T01:47:54.601Z,21.90
2022-07-27T01:52:58.113Z,24.17
2022-07-27T01:58:04.117Z,24.46
2022-07-27T02:03:08.971Z,22.95
2022-07-27T02:08:11.871Z,21.96
2022-07-27T02:13:22.341Z,21.30
2022-07-27T02:18:33.169Z,20.76
2022-07-27T02:23:40.809Z,21.46
2022-07-27T02:28:43.713Z,23.85
2022-07-27T02:33:46.617Z,23.89
2022-07-27T02:38:49.509Z,22.42
2022-07-27T02:43:52.456Z,21.53
2022-07-27T02:48:55.375Z,20.88
2022-07-27T02:53:58.249Z,21.48
2022-07-27T02:59:01.908Z,23.82
2022-07-27T03:04:05.040Z,24.12
2022-07-27T03:09:08.827Z,22.56
2022-07-27T03:14:11.955Z,21.50
2022-07-27T03:19:15.072Z,20.79
2022-07-27T03:24:18.448Z,21.36
2022-07-27T03:29:21.328Z,23.74
2022-07-27T03:34:24.164Z,23.51
2022-07-27T03:39:26.990Z,22.16
2022-07-27T03:44:30.013Z,21.36
2022-07-27T03:49:32.939Z,20.79
2022-07-27T03:54:35.880Z,21.48
2022-07-27T03:59:38.793Z,23.77
2022-07-27T04:04:41.858Z,23.24
2022-07-27T04:09:44.706Z,21.91
2022-07-27T04:14:50.092Z,21.11
2022-07-27T04:19:53.022Z,20.57
2022-07-27T04:24:55.907Z,21.25
2022-07-27T04:29:58.769Z,23.66
2022-07-27T04:35:01.809Z,23.98
2022-07-27T04:40:05.631Z,22.56
2022-07-27T04:45:08.769Z,21.69
2022-07-27T04:50:13.598Z,21.09
2022-07-27T04:55:16.729Z,20.66
2022-07-27T05:00:19.736Z,21.44
2022-07-27T05:05:22.654Z,23.85
2022-07-27T05:10:25.777Z,23.59
2022-07-27T05:15:28.873Z,22.32
2022-07-27T05:20:52.252Z,21.59
2022-07-27T05:25:55.201Z,21.07
2022-07-27T05:30:58.119Z,21.71
2022-07-27T05:36:01.106Z,24.13
2022-07-27T05:41:08.222Z,23.98
2022-07-27T05:46:11.228Z,22.72
2022-07-27T05:51:14.163Z,22.01
2022-07-27T05:56:17.089Z,21.52
2022-07-27T06:01:20.164Z,21.15
2022-07-27T06:06:41.826Z,21.92
2022-07-27T06:11:44.737Z,24.45
2022-07-27T06:16:47.661Z,24.15
2022-07-27T06:21:53.834Z,22.97
2022-07-27T06:26:57.499Z,22.34
2022-07-27T06:32:00.378Z,21.92
2022-07-27T06:37:04.365Z,21.61
2022-07-27T06:42:07.236Z,22.42
2022-07-27T06:47:10.297Z,24.75
2022-07-27T06:52:13.665Z,24.08
2022-07-27T06:57:16.985Z,23.05
2022-07-27T07:02:20.608Z,22.50
2022-07-27T07:07:23.475Z,22.16
2022-07-27T07:12:28.553Z,21.85
2022-07-27T07:17:31.558Z,22.72
2022-07-27T07:22:34.563Z,25.11
2022-07-27T07:27:37.609Z,24.93
2022-07-27T07:32:40.633Z,23.77
2022-07-27T07:37:43.937Z,23.11
2022-07-27T07:42:59.075Z,22.71
2022-07-27T07:48:02.219Z,22.42
2022-07-27T07:53:05.118Z,22.23
2022-07-27T07:58:08.067Z,23.15
2022-07-27T08:03:10.991Z,24.98
2022-07-27T08:08:14.261Z,24.13
2022-07-27T08:13:21.635Z,23.54
2022-07-27T08:18:25.276Z,23.11
2022-07-27T08:23:28.597Z,22.80
2022-07-27T08:28:36.888Z,22.61
2022-07-27T08:33:41.064Z,22.47
2022-07-27T08:38:43.994Z,23.40
2022-07-27T08:43:48.741Z,25.23
2022-07-27T08:48:52.930Z,24.41
2022-07-27T08:53:56.309Z,23.91
2022-07-27T08:58:59.433Z,23.70
2022-07-27T09:04:02.479Z,23.58
2022-07-27T09:09:05.290Z,23.58
2022-07-27T09:14:12.660Z,23.63
2022-07-27T09:19:16.768Z,23.61
2022-07-27T09:24:46.605Z,23.56
2022-07-27T09:29:45.113Z,23.56
2022-07-27T09:34:47.984Z,23.62
2022-07-27T09:39:50.864Z,23.68
2022-07-27T09:44:55.017Z,23.74
2022-07-27T09:50:21.142Z,23.79
2022-07-27T09:55:24.062Z,23.98
2022-07-27T10:00:27.438Z,24.19
2022-07-27T10:05:30.693Z,24.37
2022-07-27T10:10:33.590Z,24.46
2022-07-27T10:15:40.682Z,24.45
2022-07-27T10:20:47.498Z,24.41
2022-07-27T10:26:21.361Z,24.55
2022-07-27T10:31:30.468Z,24.80
2022-07-27T10:36:33.428Z,25.09
2022-07-27T10:41:41.556Z,25.35
2022-07-27T10:47:03.842Z,25.58
2022-07-27T10:52:07.153Z,25.60
2022-07-27T10:57:10.065Z,25.51
2022-07-27T11:02:14.982Z,25.46
2022-07-27T11:07:24.347Z,25.45
2022-07-27T11:12:31.094Z,25.51
2022-07-27T11:23:49.841Z,25.62
2022-07-27T11:28:27.988Z,25.80
2022-07-27T11:33:33.018Z,26.04
2022-07-27T11:38:46.445Z,26.16
2022-07-27T11:43:49.380Z,26.19
2022-07-27T11:49:11.844Z,26.26
2022-07-27T11:54:25.707Z,26.33
2022-07-27T11:59:33.096Z,26.41
2022-07-27T12:04:38.368Z,26.49
2022-07-27T12:09:52.609Z,26.54
2022-07-27T12:14:57.573Z,26.54
2022-07-27T12:20:14.669Z,26.49
2022-07-27T12:25:17.681Z,26.40
2022-07-27T12:30:29.440Z,26.41
2022-07-27T12:35:47.261Z,26.43
2022-07-27T12:41:00.459Z,26.42
2022-07-27T12:46:14.266Z,26.40
2022-07-27T12:51:24.021Z,26.38
2022-07-27T12:56:27.627Z,26.38
2022-07-27T13:01:30.860Z,26.45
2022-07-27T13:06:33.951Z,26.48
2022-07-27T13:11:36.828Z,26.56
2022-07-27T13:16:39.754Z,26.67
2022-07-27T13:21:42.726Z,26.82
2022-07-27T13:26:45.668Z,26.96
2022-07-27T13:31:53.653Z,27.13
2022-07-27T13:36:57.912Z,27.27
2022-07-27T13:42:00.808Z,27.40
2022-07-27T13:47:03.859Z,27.47
2022-07-27T13:52:09.056Z,27.45
2022-07-27T13:57:11.980Z,27.40
2022-07-27T14:02:14.996Z,27.37
2022-07-27T14:07:23.508Z,27.34
2022-07-27T14:12:29.271Z,27.38
2022-07-27T14:17:32.412Z,27.47
2022-07-27T14:22:35.416Z,27.52
2022-07-27T14:27:38.607Z,27.50
2022-07-27T14:32:41.815Z,27.46
2022-07-27T14:37:44.791Z,27.44
2022-07-27T14:42:47.613Z,27.38
2022-07-27T14:47:50.486Z,27.32
2022-07-27T14:52:53.353Z,27.27
2022-07-27T14:57:56.287Z,27.22
2022-07-27T15:02:59.174Z,27.11
2022-07-27T15:08:04.280Z,26.97
2022-07-27T15:13:07.955Z,26.90
2022-07-27T15:18:10.931Z,26.86
2022-07-27T15:23:14.694Z,26.82
2022-07-27T15:28:17.554Z,26.77
2022-07-27T15:33:20.499Z,26.71
2022-07-27T15:38:24.014Z,26.70
2022-07-27T15:43:26.905Z,26.69
2022-07-27T15:48:29.819Z,26.65
2022-07-27T15:53:32.839Z,26.60
2022-07-27T15:58:35.848Z,26.53
2022-07-27T16:03:39.664Z,26.48
2022-07-27T16:08:44.223Z,26.45
2022-07-27T16:13:48.424Z,26.43
2022-07-27T16:18:52.746Z,26.40
2022-07-27T16:23:57.196Z,26.32
2022-07-27T16:29:00.327Z,26.31
2022-07-27T16:34:09.646Z,26.34
2022-07-27T16:39:13.707Z,26.35
2022-07-27T16:44:18.540Z,26.34
2022-07-27T16:49:21.552Z,26.30
2022-07-27T16:54:39.522Z,26.21
2022-07-27T16:59:43.245Z,26.11
2022-07-27T17:04:46.178Z,26.00
2022-07-27T17:09:49.241Z,25.91
2022-07-27T17:14:52.254Z,25.85
2022-07-27T17:19:55.111Z,25.80
2022-07-27T17:24:57.972Z,25.75
2022-07-27T17:30:01.519Z,25.68
2022-07-27T17:35:05.338Z,25.59
2022-07-27T17:40:08.719Z,25.52
2022-07-27T17:45:11.900Z,25.47
2022-07-27T17:50:14.765Z,25.41
2022-07-27T17:55:17.614Z,25.33
2022-07-27T18:00:21.101Z,25.17
2022-07-27T18:05:24.249Z,25.06
2022-07-27T18:10:27.259Z,24.93
2022-07-27T18:15:50.815Z,24.80
2022-07-27T18:20:56.432Z,24.78
2022-07-27T18:26:00.187Z,24.76
2022-07-27T18:31:03.852Z,24.73
2022-07-27T18:36:07.836Z,24.63
2022-07-27T18:41:12.572Z,24.52
2022-07-27T18:46:17.542Z,24.46
2022-07-27T18:51:20.485Z,24.32
2022-07-27T18:56:23.446Z,24.20
2022-07-27T19:01:26.893Z,24.09
2022-07-27T19:06:29.769Z,23.93
2022-07-27T19:11:32.678Z,23.79
2022-07-27T19:16:35.893Z,23.68
2022-07-27T19:21:38.829Z,23.55
2022-07-27T19:26:42.537Z,23.42
2022-07-27T19:31:45.998Z,23.32
2022-07-27T19:36:49.059Z,23.24
2022-07-27T19:41:53.422Z,23.18
2022-07-27T19:46:58.083Z,23.11
2022-07-27T19:52:03.092Z,22.98
2022-07-27T19:57:07.990Z,22.86
2022-07-27T20:02:10.945Z,22.81
2022-07-27T20:07:13.876Z,22.71
2022-07-27T20:12:16.869Z,22.63
2022-07-27T20:17:19.783Z,22.57
2022-07-27T20:22:22.677Z,22.53
2022-07-27T20:27:25.872Z,22.51
2022-07-27T20:32:28.730Z,22.49
2022-07-27T20:37:32.530Z,22.49
2022-07-27T20:42:35.391Z,22.46
2022-07-27T20:47:43.433Z,22.47
2022-07-27T20:52:46.314Z,22.46
2022-07-27T20:57:49.352Z,22.46
2022-07-27T21:02:52.367Z,22.46
2022-07-27T21:07:56.228Z,22.45
2022-07-27T21:12:59.014Z,22.44
2022-07-27T21:18:02.738Z,22.43
2022-07-27T21:23:38.076Z,22.43
2022-07-27T21:28:41.292Z,22.40
2022-07-27T21:33:45.097Z,22.38
2022-07-27T21:38:48.083Z,22.36
2022-07-27T21:43:51.108Z,22.32
2022-07-27T21:48:54.078Z,22.30
2022-07-27T21:53:57.123Z,22.27
2022-07-27T21:59:00.106Z,22.24
2022-07-27T22:04:03.239Z,22.24
2022-07-27T22:09:06.235Z,22.22
2022-07-27T22:14:09.125Z,22.20
2022-07-27T22:19:12.111Z,22.18
2022-07-27T22:24:15.737Z,22.17
2022-07-27T22:29:18.973Z,22.14
2022-07-27T22:34:21.833Z,22.11
2022-07-27T22:39:24.877Z,22.06
2022-07-27T22:44:27.724Z,22.01
2022-07-27T22:49:30.672Z,21.95
2022-07-27T22:54:36.637Z,21.86
2022-07-27T22:59:39.569Z,21.80
2022-07-27T23:04:42.701Z,21.74
2022-07-27T23:09:45.544Z,21.70
2022-07-27T23:14:49.276Z,21.67
2022-07-27T23:19:52.310Z,21.63
2022-07-27T23:24:55.146Z,21.58
2022-07-27T23:29:59.403Z,21.56
2022-07-27T23:35:02.492Z,21.52
2022-07-27T23:40:06.468Z,21.43
2022-07-27T23:45:09.660Z,21.33
2022-07-27T23:50:12.722Z,21.26
2022-07-27T23:55:15.603Z,21.15
